createdAt,value
2019-04-03T00:01:16.958Z,65.22
2019-04-03T00:02:47.196Z,65.16
2019-04-03T00:04:15.979Z,65.11
2019-04-03T00:05:45.415Z,65.19
2019-04-03T00:07:14.134Z,65.03
2019-04-03T00:08:42.859Z,65.31
2019-04-03T00:10:12.463Z,65.27
2019-04-03T00:11:41.175Z,65.29
2019-04-03T00:13:11.551Z,65.33
2019-04-03T00:14:43.401Z,65.3
2019-04-03T00:16:12.139Z,65.29
2019-04-03T00:17:40.965Z,65.34
2019-04-03T00:19:10.324Z,65.27
2019-04-03T00:20:39.175Z,65.22
2019-04-03T00:22:09.895Z,65.21
2019-04-03T00:23:38.616Z,65.21
2019-04-03T00:25:07.428Z,65.24
2019-04-03T00:26:37.292Z,65.51
2019-04-03T00:28:06.057Z,65.48
2019-04-03T00:29:34.774Z,65.51
2019-04-03T00:31:03.499Z,65.63
2019-04-03T00:32:33.582Z,65.79
2019-04-03T00:34:02.461Z,65.71
2019-04-03T00:35:32.216Z,65.96
2019-04-03T00:37:01.016Z,66.32
2019-04-03T00:38:29.809Z,66.42
2019-04-03T00:39:59.665Z,66.61
2019-04-03T00:41:30.302Z,66.91
2019-04-03T00:42:59.817Z,66.93
2019-04-03T00:44:29.344Z,67.03
2019-04-03T00:46:00.134Z,67.22
2019-04-03T00:47:30.862Z,67.11
2019-04-03T00:49:01.426Z,67.38
2019-04-03T00:50:32.188Z,67.64
2019-04-03T00:52:03.086Z,67.81
2019-04-03T00:53:33.342Z,67.78
2019-04-03T00:55:02.232Z,68.13
2019-04-03T00:56:31.811Z,68.32
2019-04-03T00:58:01.901Z,68.58
2019-04-03T00:59:31.494Z,69.02
2019-04-03T01:01:01.892Z,68.79
2019-04-03T01:02:33.172Z,68.72
2019-04-03T01:04:03.899Z,68.47
2019-04-03T01:05:34.055Z,68.28
2019-04-03T01:07:04.138Z,68.35
2019-04-03T01:08:34.707Z,68.54
2019-04-03T01:10:04.941Z,68.71
2019-04-03T01:11:35.513Z,68.68
2019-04-03T01:13:06.531Z,69.01
2019-04-03T01:14:37.095Z,68.73
2019-04-03T01:16:08.863Z,69
2019-04-03T01:17:40.067Z,68.89
2019-04-03T01:19:11.181Z,68.83
2019-04-03T01:20:41.836Z,68.93
2019-04-03T01:22:12.389Z,69.34
2019-04-03T01:23:43.095Z,69.71
2019-04-03T01:25:13.894Z,70.08
2019-04-03T01:26:45.707Z,70.48
2019-04-03T01:28:16.851Z,70.33
2019-04-03T01:29:47.732Z,70.39
2019-04-03T01:31:19.494Z,70.31
2019-04-03T01:32:48.310Z,70.53
2019-04-03T01:34:18.249Z,70.62
2019-04-03T01:35:48.206Z,70.5
2019-04-03T01:37:19.531Z,70.69
2019-04-03T01:38:50.445Z,70.93
2019-04-03T01:40:21.341Z,71.15
2019-04-03T01:41:52.327Z,71.4
2019-04-03T01:43:23.785Z,71.59
2019-04-03T01:44:56.159Z,71.88
2019-04-03T01:46:28.230Z,72.02
2019-04-03T01:47:58.653Z,72.22
2019-04-03T01:49:29.080Z,72.37
2019-04-03T01:51:00.375Z,72.39
2019-04-03T01:52:32.440Z,72.32
2019-04-03T01:54:03.803Z,72.19
2019-04-03T01:55:35.298Z,72.16
2019-04-03T01:57:07.073Z,72.27
2019-04-03T01:58:37.076Z,72.39
2019-04-03T02:00:08.399Z,72.86
2019-04-03T02:01:39.282Z,73.28
2019-04-03T02:03:11.006Z,73.51
2019-04-03T02:04:43.293Z,73.48
2019-04-03T02:06:14.220Z,73.51
2019-04-03T02:07:45.418Z,73.01
2019-04-03T02:09:16.497Z,73.13
2019-04-03T02:10:49.056Z,73.36
2019-04-03T02:12:20.548Z,73.54
2019-04-03T02:13:51.939Z,73.86
2019-04-03T02:15:22.465Z,74.04
2019-04-03T02:16:54.190Z,73.98
2019-04-03T02:18:26.007Z,73.94
2019-04-03T02:19:57.048Z,73.98
2019-04-03T02:21:28.396Z,73.83
2019-04-03T02:23:00.865Z,73.55
2019-04-03T02:24:32.286Z,73.55
2019-04-03T02:26:03.407Z,73.4
2019-04-03T02:27:33.955Z,73.33
2019-04-03T02:29:08.469Z,73.69
2019-04-03T02:30:37.988Z,73.57
2019-04-03T02:32:07.292Z,73.29
2019-04-03T02:33:36.296Z,73.84
2019-04-03T02:35:08.637Z,74.08
2019-04-03T02:36:37.497Z,74.5
2019-04-03T02:38:07.183Z,74.72
2019-04-03T02:39:38.096Z,74.78
2019-04-03T02:41:09.907Z,74.33
2019-04-03T02:42:42.690Z,75.02
2019-04-03T02:44:11.739Z,74.64
2019-04-03T02:45:42.392Z,74.39
2019-04-03T02:47:11.753Z,74.89
2019-04-03T02:48:43.506Z,75.18
2019-04-03T02:50:15.631Z,74.63
2019-04-03T02:51:44.383Z,74.84
2019-04-03T02:53:13.751Z,75.1
2019-04-03T02:54:42.463Z,75.39
2019-04-03T02:56:14.051Z,75.64
2019-04-03T02:57:42.795Z,75.92
2019-04-03T02:59:11.584Z,75.8
2019-04-03T03:00:40.312Z,75.92
2019-04-03T03:02:13.652Z,75.99
2019-04-03T03:03:42.533Z,76.01
2019-04-03T03:05:13.589Z,76.1
2019-04-03T03:06:42.665Z,76.04
2019-04-03T03:08:14.778Z,75.96
2019-04-03T03:09:48.289Z,76.01
2019-04-03T03:11:18.784Z,75.89
2019-04-03T03:12:49.757Z,75.93
2019-04-03T03:14:18.799Z,75.8
2019-04-03T03:15:49.920Z,75.8
2019-04-03T03:17:24.228Z,76.07
2019-04-03T03:18:53.303Z,76.13
2019-04-03T03:20:22.368Z,75.97
2019-04-03T03:21:52.339Z,75.79
2019-04-03T03:23:24.630Z,75.8
2019-04-03T03:24:54.389Z,76.36
2019-04-03T03:26:23.101Z,76.55
2019-04-03T03:27:52.163Z,77
2019-04-03T03:29:27.823Z,77.08
2019-04-03T03:31:08.498Z,77.23
2019-04-03T03:32:42.110Z,77.36
2019-04-03T03:34:12.572Z,77.27
2019-04-03T03:35:52.363Z,77.39
2019-04-03T03:37:22.314Z,77.46
2019-04-03T03:38:51.348Z,77.67
2019-04-03T03:40:21.759Z,77.92
2019-04-03T03:41:50.616Z,78.29
2019-04-03T03:43:19.834Z,78.25
2019-04-03T03:44:51.431Z,78.41
2019-04-03T03:46:20.540Z,78.46
2019-04-03T03:47:49.595Z,78.33
2019-04-03T03:49:22.790Z,78.49
2019-04-03T03:50:58.663Z,78.39
2019-04-03T03:52:28.804Z,78.39
2019-04-03T03:53:58.865Z,78.51
2019-04-03T03:55:30.383Z,78.76
2019-04-03T03:57:00.130Z,78.74
2019-04-03T03:58:30.865Z,78.8
2019-04-03T03:59:59.835Z,78.78
2019-04-03T04:01:32.955Z,78.98
2019-04-03T04:03:02.058Z,79.14
2019-04-03T04:04:31.885Z,79.22
2019-04-03T04:06:02.549Z,79.28
2019-04-03T04:07:31.460Z,79.44
2019-04-03T04:09:00.430Z,79.66
2019-04-03T04:10:37.178Z,79.74
2019-04-03T04:12:10.143Z,79.8
2019-04-03T04:13:39.360Z,79.82
2019-04-03T04:15:09.904Z,79.87
2019-04-03T04:16:42.401Z,79.94
2019-04-03T04:18:16.265Z,79.9
2019-04-03T04:19:45.427Z,79.56
2019-04-03T04:21:16.773Z,79.39
2019-04-03T04:22:51.672Z,79.51
2019-04-03T04:24:20.611Z,79.68
2019-04-03T04:25:50.009Z,79.6
2019-04-03T04:27:19.050Z,79.64
2019-04-03T04:28:49.051Z,79.47
2019-04-03T04:30:17.974Z,79.47
2019-04-03T04:31:49.120Z,79.62
2019-04-03T04:33:21.516Z,79.56
2019-04-03T04:34:50.769Z,79.43
2019-04-03T04:36:19.491Z,79.34
2019-04-03T04:37:49.091Z,79.12
2019-04-03T04:39:17.827Z,79.1
2019-04-03T04:40:47.418Z,79.18
2019-04-03T04:42:16.298Z,79.21
2019-04-03T04:43:45.449Z,79.19
2019-04-03T04:45:16.949Z,78.92
2019-04-03T04:46:48.619Z,78.81
2019-04-03T04:48:21.581Z,78.94
2019-04-03T04:49:54.261Z,78.91
2019-04-03T04:51:26.563Z,78.97
2019-04-03T04:52:59.477Z,79.2
2019-04-03T04:54:31.391Z,79.03
2019-04-03T04:56:00.459Z,78.9
2019-04-03T04:57:30.158Z,78.76
2019-04-03T04:58:59.017Z,79.05
2019-04-03T05:00:30.447Z,79.15
2019-04-03T05:01:59.180Z,78.96
2019-04-03T05:03:29.362Z,78.79
2019-04-03T05:05:01.937Z,78.65
2019-04-03T05:06:33.824Z,78.48
2019-04-03T05:08:02.853Z,78.48
2019-04-03T05:09:35.619Z,78.38
2019-04-03T05:11:08.195Z,78.22
2019-04-03T05:12:44.448Z,78.26
2019-04-03T05:14:13.986Z,78.18
2019-04-03T05:15:42.883Z,78.27
2019-04-03T05:17:12.533Z,78.25
2019-04-03T05:18:41.557Z,78.4
2019-04-03T05:20:11.333Z,78.65
2019-04-03T05:21:40.131Z,78.56
2019-04-03T05:23:08.934Z,78.23
2019-04-03T05:24:37.733Z,77.94
2019-04-03T05:26:07.332Z,78.26
2019-04-03T05:27:38.932Z,78.22
2019-04-03T05:29:09.796Z,78.24
2019-04-03T05:30:41.733Z,78.51
2019-04-03T05:32:11.012Z,78.45
2019-04-03T05:33:42.892Z,78.45
2019-04-03T05:35:15.616Z,78.17
2019-04-03T05:36:45.200Z,78.2
2019-04-03T05:38:14.857Z,78.21
2019-04-03T05:39:44.457Z,78.2
2019-04-03T05:41:13.182Z,77.99
2019-04-03T05:42:44.620Z,78.18
2019-04-03T05:44:13.661Z,78.07
2019-04-03T05:45:46.853Z,77.89
2019-04-03T05:47:16.695Z,77.91
2019-04-03T05:48:48.960Z,78.14
2019-04-03T05:50:18.966Z,78.42
2019-04-03T05:51:48.696Z,78.62
2019-04-03T05:53:18.458Z,78.51
2019-04-03T05:54:49.777Z,78.87
2019-04-03T05:56:18.700Z,78.72
2019-04-03T05:57:50.775Z,79.15
2019-04-03T05:59:19.494Z,78.94
2019-04-03T06:00:48.406Z,78.67
2019-04-03T06:02:22.631Z,78.72
2019-04-03T06:03:51.568Z,78.94
2019-04-03T06:05:24.461Z,78.75
2019-04-03T06:06:53.720Z,79.05
2019-04-03T06:08:24.841Z,79.08
2019-04-03T06:09:59.098Z,79.7
2019-04-03T06:11:27.971Z,79.46
2019-04-03T06:12:57.092Z,79.48
2019-04-03T06:14:28.614Z,79.75
2019-04-03T06:15:58.750Z,79.52
2019-04-03T06:17:28.824Z,79.46
2019-04-03T06:18:59.870Z,79.57
2019-04-03T06:20:28.759Z,79.75
2019-04-03T06:21:57.800Z,79.76
2019-04-03T06:23:27.532Z,79.96
2019-04-03T06:24:57.402Z,79.65
2019-04-03T06:26:26.500Z,79.82
2019-04-03T06:27:58.130Z,80.08
2019-04-03T06:29:27.563Z,80.42
2019-04-03T06:30:57.260Z,80.47
2019-04-03T06:32:30.383Z,80.06
2019-04-03T06:33:59.396Z,80.33
2019-04-03T06:35:28.476Z,80.28
2019-04-03T06:36:57.245Z,80.49
2019-04-03T06:38:29.394Z,80.12
2019-04-03T06:40:00.422Z,80.5
2019-04-03T06:41:31.238Z,80.49
2019-04-03T06:43:02.193Z,80.83
2019-04-03T06:44:31.468Z,80.87
2019-04-03T06:46:02.652Z,80.91
2019-04-03T06:47:33.056Z,81.33
2019-04-03T06:49:02.360Z,81.47
2019-04-03T06:50:31.949Z,81.35
2019-04-03T06:52:00.665Z,81.38
2019-04-03T06:53:32.916Z,81.31
2019-04-03T06:55:04.261Z,81.15
2019-04-03T06:56:34.026Z,81.43
2019-04-03T06:58:02.748Z,81.48
2019-04-03T06:59:32.342Z,81.42
2019-04-03T07:01:01.309Z,81.48
2019-04-03T07:02:33.302Z,81.25
2019-04-03T07:04:02.204Z,81.21
2019-04-03T07:05:33.158Z,81.54
2019-04-03T07:07:01.880Z,81.81
2019-04-03T07:08:41.610Z,81.42
2019-04-03T07:10:26.217Z,81.47
2019-04-03T07:11:57.860Z,81.12
2019-04-03T07:13:30.317Z,81.04
2019-04-03T07:14:59.972Z,80.98
2019-04-03T07:16:29.341Z,80.96
2019-04-03T07:18:05.671Z,80.94
2019-04-03T07:19:34.546Z,80.81
2019-04-03T07:21:03.819Z,80.83
2019-04-03T07:22:33.422Z,80.72
2019-04-03T07:24:02.428Z,80.72
2019-04-03T07:25:34.969Z,80.86
2019-04-03T07:27:07.093Z,80.98
2019-04-03T07:28:36.499Z,80.83
2019-04-03T07:30:05.503Z,80.99
2019-04-03T07:31:35.180Z,81.11
2019-04-03T07:33:06.483Z,80.79
2019-04-03T07:34:38.857Z,80.85
2019-04-03T07:36:12.243Z,80.63
2019-04-03T07:37:43.044Z,80.46
2019-04-03T07:39:20.042Z,80.29
2019-04-03T07:40:52.860Z,80.36
2019-04-03T07:42:25.277Z,80.21
2019-04-03T07:43:54.062Z,80
2019-04-03T07:45:23.500Z,80.34
2019-04-03T07:46:55.789Z,80.64
2019-04-03T07:48:24.699Z,80.22
2019-04-03T07:49:53.431Z,79.93
2019-04-03T07:51:22.231Z,79.94
2019-04-03T07:52:53.211Z,80.08
2019-04-03T07:54:26.881Z,79.74
2019-04-03T07:55:57.386Z,79.96
2019-04-03T07:57:29.839Z,80.01
2019-04-03T07:59:04.232Z,79.92
2019-04-03T08:00:39.321Z,79.6
2019-04-03T08:02:08.218Z,79.43
2019-04-03T08:03:37.195Z,79.55
2019-04-03T08:05:07.138Z,79.34
2019-04-03T08:06:36.569Z,79.34
2019-04-03T08:08:07.587Z,79.33
2019-04-03T08:09:51.927Z,79.44
2019-04-03T08:11:21.179Z,79.63
2019-04-03T08:12:50.168Z,79.09
2019-04-03T08:14:20.376Z,79.03
2019-04-03T08:15:50.134Z,79.11
2019-04-03T08:17:20.098Z,78.93
2019-04-03T08:18:52.684Z,78.86
2019-04-03T08:20:26.573Z,78.93
2019-04-03T08:21:55.343Z,78.76
2019-04-03T08:23:24.134Z,78.68
2019-04-03T08:24:54.371Z,78.36
2019-04-03T08:26:27.885Z,78.43
2019-04-03T08:28:00.823Z,78.26
2019-04-03T08:29:38.141Z,77.93
2019-04-03T08:31:12.476Z,77.72
2019-04-03T08:32:41.721Z,77.87
2019-04-03T08:34:21.823Z,77.67
2019-04-03T08:35:50.977Z,77.59
2019-04-03T08:37:32.769Z,77.55
2019-04-03T08:39:02.359Z,77.5
2019-04-03T08:40:31.380Z,77.33
2019-04-03T08:42:02.489Z,77.36
2019-04-03T08:43:33.255Z,77.27
2019-04-03T08:45:01.997Z,77.17
2019-04-03T08:46:31.104Z,77.01
2019-04-03T08:48:00.926Z,77.05
2019-04-03T08:49:31.859Z,77.18
2019-04-03T08:51:04.101Z,76.99
2019-04-03T08:52:33.093Z,76.88
2019-04-03T08:54:02.294Z,77.02
2019-04-03T08:55:31.020Z,77.23
2019-04-03T08:57:00.265Z,77.16
2019-04-03T08:58:31.576Z,76.98
2019-04-03T09:00:02.205Z,77.2
2019-04-03T09:01:30.947Z,77.09
2019-04-03T09:02:59.735Z,76.9
2019-04-03T09:04:28.620Z,76.67
2019-04-03T09:06:01.103Z,76.37
2019-04-03T09:07:31.018Z,76.48
2019-04-03T09:09:02.772Z,76.57
2019-04-03T09:10:37.486Z,77.24
2019-04-03T09:12:08.271Z,77.12
2019-04-03T09:13:37.014Z,76.62
2019-04-03T09:15:05.979Z,75.98
2019-04-03T09:16:36.945Z,75.95
2019-04-03T09:18:07.849Z,76.05
2019-04-03T09:19:36.693Z,76.27
2019-04-03T09:21:05.413Z,75.72
2019-04-03T09:22:34.412Z,75.13
2019-04-03T09:24:04.146Z,74.61
2019-04-03T09:25:33.246Z,74.72
2019-04-03T09:27:02.088Z,74.96
2019-04-03T09:28:30.860Z,75.11
2019-04-03T09:30:00.450Z,75.32
2019-04-03T09:31:29.907Z,75.32
2019-04-03T09:33:00.925Z,75.04
2019-04-03T09:34:34.439Z,74.62
2019-04-03T09:36:04.724Z,74.7
2019-04-03T09:37:38.771Z,75.16
2019-04-03T09:39:07.658Z,75.21
2019-04-03T09:40:37.065Z,74.68
2019-04-03T09:42:05.810Z,74.73
2019-04-03T09:43:34.536Z,74.99
2019-04-03T09:45:04.235Z,74.95
2019-04-03T09:46:36.053Z,74.28
2019-04-03T09:48:06.407Z,74.95
2019-04-03T09:49:43.376Z,74.93
2019-04-03T09:51:21.850Z,74.85
2019-04-03T09:52:56.076Z,74.24
2019-04-03T09:54:29.241Z,74.54
2019-04-03T09:55:58.308Z,74.4
2019-04-03T09:57:32.347Z,74.15
2019-04-03T09:59:01.745Z,74.13
2019-04-03T10:00:30.887Z,73.45
2019-04-03T10:02:00.535Z,73.96
2019-04-03T10:03:31.835Z,74.43
2019-04-03T10:05:03.234Z,74.08
2019-04-03T10:06:36.472Z,74.17
2019-04-03T10:08:09.709Z,74.83
2019-04-03T10:09:41.223Z,74.63
2019-04-03T10:11:17.810Z,74.76
2019-04-03T10:12:54.828Z,75.31
2019-04-03T10:14:24.064Z,75.13
2019-04-03T10:15:53.093Z,75.41
2019-04-03T10:17:22.098Z,75.28
2019-04-03T10:18:50.855Z,74.82
2019-04-03T10:20:22.068Z,74.79
2019-04-03T10:21:53.997Z,74.32
2019-04-03T10:23:23.310Z,74.26
2019-04-03T10:24:52.621Z,73.71
2019-04-03T10:26:21.689Z,73.65
2019-04-03T10:27:51.033Z,73.87
2019-04-03T10:29:23.656Z,74.3
2019-04-03T10:30:54.640Z,74.46
2019-04-03T10:32:28.176Z,74.84
2019-04-03T10:33:58.778Z,74.37
2019-04-03T10:35:28.575Z,75.07
2019-04-03T10:36:57.339Z,75.18
2019-04-03T10:38:26.441Z,74.61
2019-04-03T10:39:58.532Z,74.49
2019-04-03T10:41:29.845Z,74.74
2019-04-03T10:43:06.034Z,74.93
2019-04-03T10:44:35.980Z,74.93
2019-04-03T10:46:04.694Z,75.31
2019-04-03T10:47:47.034Z,75.64
2019-04-03T10:49:16.710Z,75.95
2019-04-03T10:50:47.333Z,76.14
2019-04-03T10:52:18.866Z,76.28
2019-04-03T10:53:52.590Z,76.88
2019-04-03T10:55:21.469Z,77.23
2019-04-03T10:56:50.314Z,77.01
2019-04-03T10:58:19.206Z,76.92
2019-04-03T10:59:55.544Z,77.29
2019-04-03T11:01:24.876Z,77.35
2019-04-03T11:02:54.216Z,76.93
2019-04-03T11:04:22.940Z,76.59
2019-04-03T11:05:51.858Z,76.46
2019-04-03T11:07:20.702Z,77.03
2019-04-03T11:08:49.420Z,76.57
2019-04-03T11:10:19.143Z,76.52
2019-04-03T11:11:49.102Z,76.28
2019-04-03T11:13:19.299Z,76.39
2019-04-03T11:14:48.345Z,76.35
2019-04-03T11:16:19.751Z,76.11
2019-04-03T11:17:50.512Z,75.72
2019-04-03T11:19:21.253Z,75.35
2019-04-03T11:20:52.235Z,75.61
2019-04-03T11:22:21.814Z,75.5
2019-04-03T11:23:51.508Z,75.78
2019-04-03T11:25:21.787Z,75.05
2019-04-03T11:26:53.263Z,74.91
2019-04-03T11:28:22.903Z,75.25
2019-04-03T11:29:52.146Z,74.87
2019-04-03T11:31:42.067Z,74.89
2019-04-03T11:33:14.168Z,74.76
2019-04-03T11:34:43.022Z,75.1
2019-04-03T11:36:12.302Z,74.97
2019-04-03T11:37:41.684Z,75.13
2019-04-03T11:39:17.752Z,75.16
2019-04-03T11:40:50.877Z,75.35
2019-04-03T11:42:31.149Z,74.73
2019-04-03T11:44:00.945Z,75.05
2019-04-03T11:45:29.817Z,74.28
2019-04-03T11:46:58.617Z,74.21
2019-04-03T11:48:27.888Z,73.03
2019-04-03T11:49:58.235Z,72.87
2019-04-03T11:51:32.106Z,72.16
2019-04-03T11:53:08.467Z,72.27
2019-04-03T11:54:40.927Z,71.14
2019-04-03T11:56:14.483Z,70.52
2019-04-03T11:57:44.234Z,70.3
2019-04-03T11:59:13.995Z,69.86
2019-04-03T12:00:44.331Z,70.16
2019-04-03T12:02:14.065Z,68.88
2019-04-03T12:03:43.667Z,69.7
2019-04-03T12:05:21.029Z,69.9
2019-04-03T12:06:53.289Z,70.27
2019-04-03T12:08:23.094Z,70.03
2019-04-03T12:09:52.131Z,69.8
2019-04-03T12:11:21.756Z,70.37
2019-04-03T12:12:50.536Z,69.96
2019-04-03T12:14:22.855Z,69.75
2019-04-03T12:15:58.353Z,70.06
2019-04-03T12:17:31.030Z,69.6
2019-04-03T12:19:00.959Z,69.23
2019-04-03T12:20:29.742Z,68.59
2019-04-03T12:21:58.850Z,68.23
2019-04-03T12:23:27.951Z,67.58
2019-04-03T12:24:57.610Z,67.93
2019-04-03T12:26:26.617Z,67.72
2019-04-03T12:27:55.830Z,67.36
2019-04-03T12:29:27.737Z,67.45
2019-04-03T12:30:56.616Z,67.28
2019-04-03T12:32:47.132Z,67.28
2019-04-03T12:34:17.393Z,67.03
2019-04-03T12:35:47.810Z,68.09
2019-04-03T12:37:19.761Z,68.03
2019-04-03T12:38:49.024Z,68.61
2019-04-03T12:40:17.815Z,68.59
2019-04-03T12:41:48.617Z,68.68
2019-04-03T12:43:18.858Z,69.05
2019-04-03T12:44:47.981Z,69.41
2019-04-03T12:46:17.528Z,69.58
2019-04-03T12:47:49.996Z,69.92
2019-04-03T12:49:24.069Z,70.22
2019-04-03T12:50:54.942Z,70.35
2019-04-03T12:52:24.403Z,70.75
2019-04-03T12:53:54.506Z,70.96
2019-04-03T12:55:27.009Z,71.3
2019-04-03T12:56:56.041Z,70.84
2019-04-03T12:58:25.025Z,71.18
2019-04-03T12:59:53.744Z,70.74
2019-04-03T13:01:23.665Z,70.26
2019-04-03T13:02:53.649Z,69.86
2019-04-03T13:04:30.158Z,69.93
2019-04-03T13:05:59.899Z,70.27
2019-04-03T13:07:28.624Z,69.77
2019-04-03T13:08:58.632Z,69.18
2019-04-03T13:10:47.102Z,69.13
2019-04-03T13:12:16.639Z,69.25
2019-04-03T13:13:47.270Z,69.74
2019-04-03T13:15:15.988Z,69.71
2019-04-03T13:16:47.808Z,69.62
2019-04-03T13:18:17.870Z,69.45
2019-04-03T13:19:47.706Z,70.17
2019-04-03T13:21:18.607Z,70.86
2019-04-03T13:22:48.371Z,70.38
2019-04-03T13:24:22.534Z,69.86
2019-04-03T13:25:54.646Z,70.5
2019-04-03T13:27:23.412Z,70.51
2019-04-03T13:28:52.313Z,69.72
2019-04-03T13:30:21.461Z,70.16
2019-04-03T13:31:52.058Z,70.17
2019-04-03T13:33:22.784Z,70.33
2019-04-03T13:34:52.296Z,70.45
2019-04-03T13:36:25.259Z,70.99
2019-04-03T13:37:56.850Z,71.34
2019-04-03T13:39:34.219Z,72.15
2019-04-03T13:41:05.871Z,72.45
2019-04-03T13:42:36.841Z,72.04
2019-04-03T13:44:05.633Z,71.79
2019-04-03T13:45:36.942Z,71.77
2019-04-03T13:47:09.909Z,72.25
2019-04-03T13:48:39.828Z,72.47
2019-04-03T13:50:08.798Z,72.8
2019-04-03T13:51:38.553Z,73.2
2019-04-03T13:53:07.736Z,73.17
2019-04-03T13:54:36.938Z,73.06
2019-04-03T13:56:11.896Z,72.7
2019-04-03T13:57:41.981Z,72.94
2019-04-03T13:59:11.026Z,72.99
2019-04-03T14:00:40.198Z,73.01
2019-04-03T14:02:15.135Z,72.8
2019-04-03T14:03:44.319Z,72.94
2019-04-03T14:05:13.179Z,72.78
2019-04-03T14:06:44.114Z,73.03
2019-04-03T14:08:14.245Z,72.7
2019-04-03T14:09:43.413Z,72.54
2019-04-03T14:11:12.143Z,72.17
2019-04-03T14:12:45.983Z,72.29
2019-04-03T14:14:20.351Z,71.62
2019-04-03T14:15:49.270Z,71.69
2019-04-03T14:17:19.431Z,71.66
2019-04-03T14:18:51.413Z,71.21
2019-04-03T14:20:24.907Z,71.38
2019-04-03T14:21:53.678Z,70.86
2019-04-03T14:23:22.767Z,71.17
2019-04-03T14:24:57.883Z,71.34
2019-04-03T14:26:26.702Z,71.21
2019-04-03T14:27:56.127Z,71.06
2019-04-03T14:29:25.279Z,70.91
2019-04-03T14:30:56.221Z,71.13
2019-04-03T14:32:26.857Z,71.12
2019-04-03T14:33:59.089Z,71.01
2019-04-03T14:35:55.753Z,70.77
2019-04-03T14:37:29.909Z,70.6
2019-04-03T14:38:58.964Z,70.14
2019-04-03T14:40:29.296Z,70.05
2019-04-03T14:41:59.943Z,70.17
2019-04-03T14:43:28.777Z,70.64
2019-04-03T14:44:57.959Z,70.7
2019-04-03T14:46:29.254Z,70.93
2019-04-03T14:48:00.872Z,70.83
2019-04-03T14:49:33.499Z,71.08
2019-04-03T14:51:11.038Z,71.18
2019-04-03T14:52:43.189Z,71.6
2019-04-03T14:54:14.368Z,71.82
2019-04-03T14:55:55.207Z,71.6
2019-04-03T14:57:28.171Z,71.4
2019-04-03T14:58:59.856Z,71.65
2019-04-03T15:00:33.420Z,72.02
2019-04-03T15:02:02.693Z,72.25
2019-04-03T15:03:35.055Z,72.2
2019-04-03T15:05:09.085Z,72.12
2019-04-03T15:06:38.532Z,72.21
2019-04-03T15:08:10.837Z,72.11
2019-04-03T15:09:40.096Z,71.99
2019-04-03T15:11:08.933Z,72.26
2019-04-03T15:12:41.097Z,72.65
2019-04-03T15:14:10.784Z,72.54
2019-04-03T15:15:41.177Z,72.44
2019-04-03T15:17:11.456Z,72.42
2019-04-03T15:18:43.744Z,72.35
2019-04-03T15:20:15.210Z,72.54
2019-04-03T15:21:46.990Z,72.73
2019-04-03T15:23:16.435Z,72.47
2019-04-03T15:24:49.576Z,72.32
2019-04-03T15:26:23.199Z,72.65
2019-04-03T15:27:52.671Z,72.62
2019-04-03T15:29:23.141Z,73.07
2019-04-03T15:30:52.057Z,73.05
2019-04-03T15:32:24.211Z,72.73
2019-04-03T15:33:56.790Z,72.77
2019-04-03T15:35:25.909Z,72.94
2019-04-03T15:36:57.221Z,72.57
2019-04-03T15:38:26.771Z,72.96
2019-04-03T15:40:02.538Z,73.04
2019-04-03T15:41:35.091Z,72.97
2019-04-03T15:43:35.016Z,72.59
2019-04-03T15:45:04.266Z,72.5
2019-04-03T15:46:35.306Z,72.61
2019-04-03T15:48:04.831Z,72.46
2019-04-03T15:49:34.286Z,72.48
2019-04-03T15:51:07.771Z,72.45
2019-04-03T15:52:37.233Z,72.38
2019-04-03T15:54:06.051Z,72.22
2019-04-03T15:55:39.654Z,72.16
2019-04-03T15:57:08.373Z,72.23
2019-04-03T15:58:37.600Z,72.09
2019-04-03T16:00:08.054Z,72.34
2019-04-03T16:01:41.172Z,72.13
2019-04-03T16:03:10.600Z,71.78
2019-04-03T16:04:39.731Z,72.19
2019-04-03T16:06:10.210Z,72.6
2019-04-03T16:07:42.847Z,72.3
2019-04-03T16:09:12.539Z,72.68
2019-04-03T16:10:42.132Z,72.67
2019-04-03T16:12:12.601Z,72.75
2019-04-03T16:13:42.211Z,72.72
2019-04-03T16:15:14.306Z,72.91
2019-04-03T16:16:43.178Z,73.23
2019-04-03T16:18:13.808Z,72.97
2019-04-03T16:19:45.414Z,72.68
2019-04-03T16:21:15.177Z,73.17
2019-04-03T16:22:44.217Z,73.31
2019-04-03T16:24:17.927Z,73.43
2019-04-03T16:25:50.406Z,73.14
2019-04-03T16:27:19.605Z,73.13
2019-04-03T16:28:48.797Z,72.68
2019-04-03T16:30:21.989Z,72.61
2019-04-03T16:31:55.783Z,72.51
2019-04-03T16:33:29.139Z,72.43
2019-04-03T16:34:58.060Z,72.6
2019-04-03T16:36:30.433Z,72.79
2019-04-03T16:38:02.216Z,73.08
2019-04-03T16:39:33.529Z,73.12
2019-04-03T16:41:03.696Z,73.07
2019-04-03T16:42:33.169Z,73.14
2019-04-03T16:44:01.971Z,73.08
2019-04-03T16:45:31.809Z,73.37
2019-04-03T16:47:00.539Z,73.25
2019-04-03T16:48:30.078Z,73.54
2019-04-03T16:50:00.709Z,73.34
2019-04-03T16:51:33.866Z,73.79
2019-04-03T16:53:03.092Z,73.69
2019-04-03T16:54:34.691Z,73.52
2019-04-03T16:56:06.621Z,73.56
2019-04-03T16:57:35.850Z,73.45
2019-04-03T16:59:08.712Z,73.39
2019-04-03T17:00:42.867Z,73.39
2019-04-03T17:02:12.689Z,73.62
2019-04-03T17:03:41.571Z,73.63
2019-04-03T17:05:12.632Z,73.92
2019-04-03T17:06:42.882Z,73.67
2019-04-03T17:08:11.649Z,73.61
2019-04-03T17:09:43.303Z,73.64
2019-04-03T17:11:12.878Z,73.66
2019-04-03T17:12:41.701Z,73.61
2019-04-03T17:14:11.006Z,73.56
2019-04-03T17:15:40.859Z,73.55
2019-04-03T17:17:15.455Z,73.57
2019-04-03T17:18:48.042Z,73.66
2019-04-03T17:20:17.386Z,73.75
2019-04-03T17:21:46.293Z,73.63
2019-04-03T17:23:17.899Z,73.72
2019-04-03T17:24:56.560Z,73.3
2019-04-03T17:26:25.865Z,73.45
2019-04-03T17:28:10.449Z,73.5
2019-04-03T17:29:39.254Z,73.29
2019-04-03T17:31:09.164Z,73.33
2019-04-03T17:32:37.902Z,73.29
2019-04-03T17:34:08.574Z,73.45
2019-04-03T17:35:37.855Z,73.6
2019-04-03T17:37:06.614Z,73.61
2019-04-03T17:38:37.912Z,73.77
2019-04-03T17:40:10.947Z,73.73
2019-04-03T17:41:42.943Z,73.78
2019-04-03T17:43:26.626Z,74.01
2019-04-03T17:44:55.341Z,73.93
2019-04-03T17:46:24.069Z,73.86
2019-04-03T17:47:54.618Z,73.98
2019-04-03T17:49:28.936Z,73.8
2019-04-03T17:50:57.854Z,73.92
2019-04-03T17:52:29.258Z,74.06
2019-04-03T17:53:58.855Z,74.06
2019-04-03T17:55:27.662Z,74.3
2019-04-03T17:56:57.341Z,74.47
2019-04-03T17:58:26.057Z,74.7
2019-04-03T17:59:54.782Z,74.75
2019-04-03T18:01:23.576Z,74.73
2019-04-03T18:02:53.267Z,74.81
2019-04-03T18:04:25.182Z,75.19
2019-04-03T18:05:57.661Z,76.65
2019-04-03T18:07:33.031Z,78.36
2019-04-03T18:09:04.291Z,79.96
2019-04-03T18:10:33.912Z,81.18
2019-04-03T18:12:05.539Z,82.08
2019-04-03T18:13:34.443Z,82.3
2019-04-03T18:15:04.290Z,82.41
2019-04-03T18:16:35.828Z,82.89
2019-04-03T18:18:07.823Z,82.83
2019-04-03T18:19:42.672Z,82.99
2019-04-03T18:21:13.298Z,83.26
2019-04-03T18:22:42.214Z,83.47
2019-04-03T18:24:10.961Z,83.6
2019-04-03T18:25:39.749Z,84.09
2019-04-03T18:27:11.686Z,84.31
2019-04-03T18:28:41.545Z,84.15
2019-04-03T18:30:12.960Z,84.29
2019-04-03T18:31:45.289Z,84.11
2019-04-03T18:33:17.774Z,84.34
2019-04-03T18:34:55.416Z,84.16
2019-04-03T18:36:31.424Z,84.04
2019-04-03T18:38:00.958Z,84.14
2019-04-03T18:39:29.921Z,84.32
2019-04-03T18:40:59.601Z,84.14
2019-04-03T18:42:28.955Z,84.23
2019-04-03T18:43:59.629Z,84.52
2019-04-03T18:45:30.979Z,84.67
2019-04-03T18:47:00.023Z,84.7
2019-04-03T18:48:29.201Z,84.81
2019-04-03T18:50:03.933Z,85.06
2019-04-03T18:51:32.716Z,84.99
2019-04-03T18:53:01.543Z,85.07
2019-04-03T18:54:31.671Z,84.87
2019-04-03T18:56:00.394Z,84.61
2019-04-03T18:57:29.180Z,84.37
2019-04-03T18:59:00.089Z,83.98
2019-04-03T19:00:31.343Z,83.98
2019-04-03T19:02:00.067Z,83.84
2019-04-03T19:03:28.878Z,83.95
2019-04-03T19:05:14.335Z,83.67
2019-04-03T19:06:45.429Z,83.27
2019-04-03T19:08:18.958Z,83.38
2019-04-03T19:09:47.746Z,83.35
2019-04-03T19:11:16.472Z,83.24
2019-04-03T19:12:48.394Z,83.13
2019-04-03T19:14:31.586Z,82.86
2019-04-03T19:16:02.691Z,82.74
2019-04-03T19:17:31.526Z,82.75
2019-04-03T19:19:12.386Z,82.54
2019-04-03T19:20:41.140Z,82.26
2019-04-03T19:22:11.843Z,82.2
2019-04-03T19:23:54.602Z,82.24
2019-04-03T19:25:24.905Z,82.42
2019-04-03T19:26:54.631Z,82.41
2019-04-03T19:28:24.307Z,82.5
2019-04-03T19:29:53.032Z,82.81
2019-04-03T19:31:25.296Z,82.47
2019-04-03T19:32:54.266Z,82.3
2019-04-03T19:34:25.380Z,82.51
2019-04-03T19:35:54.559Z,83
2019-04-03T19:37:23.359Z,82.77